sensor_id;sensor_type;location;lat;lon;timestamp;P1;durP1;ratioP1;P2;durP2;ratioP2
75171;SDS011;63750;52.418;20.742;2023-02-24T00:01:47;44.30;;;35.10;;
75171;SDS011;63750;52.418;20.742;2023-02-24T00:04:17;44.70;;;34.20;;
75171;SDS011;63750;52.418;20.742;2023-02-24T00:06:45;44.00;;;34.30;;
75171;SDS011;63750;52.418;20.742;2023-02-24T00:09:15;43.40;;;33.10;;
75171;SDS011;63750;52.418;20.742;2023-02-24T00:11:45;46.90;;;34.50;;
75171;SDS011;63750;52.418;20.742;2023-02-24T00:14:14;44.40;;;33.30;;
75171;SDS011;63750;52.418;20.742;2023-02-24T00:16:42;41.00;;;32.60;;
75171;SDS011;63750;52.418;20.742;2023-02-24T00:19:11;43.00;;;32.10;;
75171;SDS011;63750;52.418;20.742;2023-02-24T00:21:39;41.70;;;31.90;;
75171;SDS011;63750;52.418;20.742;2023-02-24T00:24:07;44.20;;;33.70;;
75171;SDS011;63750;52.418;20.742;2023-02-24T00:26:35;42.80;;;34.30;;
75171;SDS011;63750;52.418;20.742;2023-02-24T00:29:04;44.90;;;33.40;;
75171;SDS011;63750;52.418;20.742;2023-02-24T00:31:32;42.30;;;32.20;;
75171;SDS011;63750;52.418;20.742;2023-02-24T00:34:00;41.00;;;32.40;;
75171;SDS011;63750;52.418;20.742;2023-02-24T00:36:28;42.40;;;33.20;;
75171;SDS011;63750;52.418;20.742;2023-02-24T00:38:58;43.40;;;33.30;;
75171;SDS011;63750;52.418;20.742;2023-02-24T00:41:28;43.90;;;33.70;;
75171;SDS011;63750;52.418;20.742;2023-02-24T00:43:57;42.70;;;34.40;;
75171;SDS011;63750;52.418;20.742;2023-02-24T00:46:26;45.20;;;36.00;;
75171;SDS011;63750;52.418;20.742;2023-02-24T00:48:53;43.40;;;34.20;;
75171;SDS011;63750;52.418;20.742;2023-02-24T00:51:21;45.20;;;36.20;;
75171;SDS011;63750;52.418;20.742;2023-02-24T00:53:50;46.60;;;35.40;;
75171;SDS011;63750;52.418;20.742;2023-02-24T00:56:19;45.20;;;35.10;;
75171;SDS011;63750;52.418;20.742;2023-02-24T00:58:47;52.60;;;36.50;;
75171;SDS011;63750;52.418;20.742;2023-02-24T01:01:15;43.10;;;35.30;;
75171;SDS011;63750;52.418;20.742;2023-02-24T01:03:44;49.00;;;36.30;;
75171;SDS011;63750;52.418;20.742;2023-02-24T01:06:13;47.80;;;35.90;;
75171;SDS011;63750;52.418;20.742;2023-02-24T01:08:41;47.30;;;35.80;;
75171;SDS011;63750;52.418;20.742;2023-02-24T01:11:09;46.20;;;36.30;;
75171;SDS011;63750;52.418;20.742;2023-02-24T01:13:36;45.00;;;35.70;;
75171;SDS011;63750;52.418;20.742;2023-02-24T01:16:03;45.10;;;35.30;;
75171;SDS011;63750;52.418;20.742;2023-02-24T01:18:32;46.10;;;35.90;;
75171;SDS011;63750;52.418;20.742;2023-02-24T01:20:59;45.40;;;35.60;;
75171;SDS011;63750;52.418;20.742;2023-02-24T01:23:27;44.30;;;34.70;;
75171;SDS011;63750;52.418;20.742;2023-02-24T01:25:54;47.50;;;34.90;;
75171;SDS011;63750;52.418;20.742;2023-02-24T01:28:21;47.80;;;35.20;;
75171;SDS011;63750;52.418;20.742;2023-02-24T01:30:49;42.40;;;34.10;;
75171;SDS011;63750;52.418;20.742;2023-02-24T01:33:16;45.00;;;34.50;;
75171;SDS011;63750;52.418;20.742;2023-02-24T01:35:44;49.40;;;36.50;;
75171;SDS011;63750;52.418;20.742;2023-02-24T01:38:11;46.60;;;36.00;;
75171;SDS011;63750;52.418;20.742;2023-02-24T01:40:38;49.40;;;35.50;;
75171;SDS011;63750;52.418;20.742;2023-02-24T01:43:08;42.30;;;35.00;;
75171;SDS011;63750;52.418;20.742;2023-02-24T01:45:36;42.90;;;34.30;;
75171;SDS011;63750;52.418;20.742;2023-02-24T01:48:04;44.40;;;34.50;;
75171;SDS011;63750;52.418;20.742;2023-02-24T01:50:34;46.40;;;35.40;;
75171;SDS011;63750;52.418;20.742;2023-02-24T01:53:03;45.40;;;34.70;;
75171;SDS011;63750;52.418;20.742;2023-02-24T01:55:33;45.70;;;35.80;;
75171;SDS011;63750;52.418;20.742;2023-02-24T01:58:07;44.90;;;35.70;;
75171;SDS011;63750;52.418;20.742;2023-02-24T02:00:38;46.90;;;35.60;;
75171;SDS011;63750;52.418;20.742;2023-02-24T02:03:10;48.70;;;37.50;;
75171;SDS011;63750;52.418;20.742;2023-02-24T02:05:42;49.30;;;37.80;;
75171;SDS011;63750;52.418;20.742;2023-02-24T02:08:10;51.30;;;36.40;;
75171;SDS011;63750;52.418;20.742;2023-02-24T02:10:39;48.80;;;37.40;;
75171;SDS011;63750;52.418;20.742;2023-02-24T02:13:07;48.60;;;38.40;;
75171;SDS011;63750;52.418;20.742;2023-02-24T02:15:36;47.50;;;37.10;;
75171;SDS011;63750;52.418;20.742;2023-02-24T02:18:11;48.50;;;38.20;;
75171;SDS011;63750;52.418;20.742;2023-02-24T02:20:57;50.80;;;38.50;;
75171;SDS011;63750;52.418;20.742;2023-02-24T02:24:01;57.70;;;41.20;;
75171;SDS011;63750;52.418;20.742;2023-02-24T02:30:10;52.30;;;39.30;;
75171;SDS011;63750;52.418;20.742;2023-02-24T02:33:08;48.80;;;39.20;;
75171;SDS011;63750;52.418;20.742;2023-02-24T02:35:54;55.80;;;40.40;;
75171;SDS011;63750;52.418;20.742;2023-02-24T02:38:28;59.20;;;43.20;;
75171;SDS011;63750;52.418;20.742;2023-02-24T02:41:05;54.90;;;42.20;;
75171;SDS011;63750;52.418;20.742;2023-02-24T02:43:40;55.00;;;42.50;;
75171;SDS011;63750;52.418;20.742;2023-02-24T02:46:14;58.50;;;42.60;;
75171;SDS011;63750;52.418;20.742;2023-02-24T02:48:48;56.80;;;42.10;;
75171;SDS011;63750;52.418;20.742;2023-02-24T02:51:23;56.30;;;43.80;;
75171;SDS011;63750;52.418;20.742;2023-02-24T02:53:57;55.60;;;42.50;;
75171;SDS011;63750;52.418;20.742;2023-02-24T02:56:28;58.30;;;43.70;;
75171;SDS011;63750;52.418;20.742;2023-02-24T02:58:59;55.80;;;42.00;;
75171;SDS011;63750;52.418;20.742;2023-02-24T03:01:28;57.80;;;43.70;;
75171;SDS011;63750;52.418;20.742;2023-02-24T03:04:01;59.80;;;44.60;;
75171;SDS011;63750;52.418;20.742;2023-02-24T03:06:31;59.30;;;45.30;;
75171;SDS011;63750;52.418;20.742;2023-02-24T03:09:03;60.40;;;45.10;;
75171;SDS011;63750;52.418;20.742;2023-02-24T03:11:35;65.00;;;47.00;;
75171;SDS011;63750;52.418;20.742;2023-02-24T03:14:02;60.90;;;44.30;;
75171;SDS011;63750;52.418;20.742;2023-02-24T03:16:32;62.00;;;47.20;;
75171;SDS011;63750;52.418;20.742;2023-02-24T03:19:01;66.10;;;48.80;;
75171;SDS011;63750;52.418;20.742;2023-02-24T03:21:32;64.50;;;47.10;;
75171;SDS011;63750;52.418;20.742;2023-02-24T03:24:04;61.50;;;47.30;;
75171;SDS011;63750;52.418;20.742;2023-02-24T03:26:35;65.10;;;49.00;;
75171;SDS011;63750;52.418;20.742;2023-02-24T03:29:08;65.20;;;49.50;;
75171;SDS011;63750;52.418;20.742;2023-02-24T03:31:42;64.80;;;47.70;;
75171;SDS011;63750;52.418;20.742;2023-02-24T03:34:13;63.80;;;48.40;;
75171;SDS011;63750;52.418;20.742;2023-02-24T03:36:47;67.20;;;49.60;;
75171;SDS011;63750;52.418;20.742;2023-02-24T03:39:14;63.60;;;49.30;;
75171;SDS011;63750;52.418;20.742;2023-02-24T03:41:56;64.50;;;49.30;;
75171;SDS011;63750;52.418;20.742;2023-02-24T03:44:42;65.80;;;49.10;;
75171;SDS011;63750;52.418;20.742;2023-02-24T03:47:09;69.00;;;49.40;;
75171;SDS011;63750;52.418;20.742;2023-02-24T03:49:37;64.50;;;49.40;;
75171;SDS011;63750;52.418;20.742;2023-02-24T03:52:08;72.90;;;52.60;;
75171;SDS011;63750;52.418;20.742;2023-02-24T03:54:46;64.70;;;51.30;;
75171;SDS011;63750;52.418;20.742;2023-02-24T03:57:27;66.50;;;49.50;;
75171;SDS011;63750;52.418;20.742;2023-02-24T04:00:01;72.50;;;51.10;;
75171;SDS011;63750;52.418;20.742;2023-02-24T04:02:33;72.70;;;54.70;;
75171;SDS011;63750;52.418;20.742;2023-02-24T04:05:02;75.80;;;54.20;;
75171;SDS011;63750;52.418;20.742;2023-02-24T04:07:39;72.10;;;51.80;;
75171;SDS011;63750;52.418;20.742;2023-02-24T04:10:12;69.60;;;52.50;;
75171;SDS011;63750;52.418;20.742;2023-02-24T04:12:48;73.10;;;54.00;;
75171;SDS011;63750;52.418;20.742;2023-02-24T04:15:19;76.10;;;55.10;;
75171;SDS011;63750;52.418;20.742;2023-02-24T04:17:52;76.10;;;55.10;;
75171;SDS011;63750;52.418;20.742;2023-02-24T04:20:21;71.00;;;52.60;;
75171;SDS011;63750;52.418;20.742;2023-02-24T04:22:55;73.00;;;55.60;;
75171;SDS011;63750;52.418;20.742;2023-02-24T04:25:26;77.00;;;57.30;;
75171;SDS011;63750;52.418;20.742;2023-02-24T04:27:56;79.60;;;56.30;;
75171;SDS011;63750;52.418;20.742;2023-02-24T04:30:26;80.90;;;56.30;;
75171;SDS011;63750;52.418;20.742;2023-02-24T04:32:57;79.30;;;56.80;;
75171;SDS011;63750;52.418;20.742;2023-02-24T04:35:24;79.60;;;57.20;;
75171;SDS011;63750;52.418;20.742;2023-02-24T04:37:52;87.70;;;60.30;;
75171;SDS011;63750;52.418;20.742;2023-02-24T04:40:20;80.10;;;58.10;;
75171;SDS011;63750;52.418;20.742;2023-02-24T04:42:48;83.70;;;59.70;;
75171;SDS011;63750;52.418;20.742;2023-02-24T04:45:17;82.10;;;58.60;;
75171;SDS011;63750;52.418;20.742;2023-02-24T04:47:46;84.20;;;62.20;;
75171;SDS011;63750;52.418;20.742;2023-02-24T04:50:15;87.90;;;62.40;;
75171;SDS011;63750;52.418;20.742;2023-02-24T04:52:43;83.50;;;59.60;;
75171;SDS011;63750;52.418;20.742;2023-02-24T04:55:12;91.60;;;63.20;;
75171;SDS011;63750;52.418;20.742;2023-02-24T04:57:45;84.70;;;60.90;;
75171;SDS011;63750;52.418;20.742;2023-02-24T05:00:15;82.90;;;60.70;;
75171;SDS011;63750;52.418;20.742;2023-02-24T05:02:44;83.20;;;60.40;;
75171;SDS011;63750;52.418;20.742;2023-02-24T05:05:23;85.40;;;58.50;;
75171;SDS011;63750;52.418;20.742;2023-02-24T05:07:59;89.50;;;59.90;;
75171;SDS011;63750;52.418;20.742;2023-02-24T05:10:29;87.00;;;61.40;;
75171;SDS011;63750;52.418;20.742;2023-02-24T05:13:00;88.50;;;62.40;;
75171;SDS011;63750;52.418;20.742;2023-02-24T05:15:28;88.20;;;60.40;;
75171;SDS011;63750;52.418;20.742;2023-02-24T05:17:57;91.00;;;61.90;;
75171;SDS011;63750;52.418;20.742;2023-02-24T05:20:25;88.00;;;60.10;;
75171;SDS011;63750;52.418;20.742;2023-02-24T05:22:52;86.60;;;61.90;;
75171;SDS011;63750;52.418;20.742;2023-02-24T05:25:19;87.20;;;59.10;;
75171;SDS011;63750;52.418;20.742;2023-02-24T05:27:47;83.40;;;59.10;;
75171;SDS011;63750;52.418;20.742;2023-02-24T05:30:14;76.90;;;56.50;;
75171;SDS011;63750;52.418;20.742;2023-02-24T05:32:45;84.00;;;61.00;;
75171;SDS011;63750;52.418;20.742;2023-02-24T05:35:20;87.80;;;61.80;;
75171;SDS011;63750;52.418;20.742;2023-02-24T05:37:49;89.00;;;63.70;;
75171;SDS011;63750;52.418;20.742;2023-02-24T05:40:17;81.80;;;59.00;;
75171;SDS011;63750;52.418;20.742;2023-02-24T05:42:46;91.10;;;61.40;;
75171;SDS011;63750;52.418;20.742;2023-02-24T05:45:21;88.20;;;61.00;;
75171;SDS011;63750;52.418;20.742;2023-02-24T05:47:59;89.90;;;59.90;;
75171;SDS011;63750;52.418;20.742;2023-02-24T05:50:32;80.90;;;58.90;;
75171;SDS011;63750;52.418;20.742;2023-02-24T05:53:00;83.90;;;57.40;;
75171;SDS011;63750;52.418;20.742;2023-02-24T05:55:27;82.90;;;57.20;;
75171;SDS011;63750;52.418;20.742;2023-02-24T05:57:57;81.60;;;59.40;;
75171;SDS011;63750;52.418;20.742;2023-02-24T06:00:32;80.10;;;57.40;;
75171;SDS011;63750;52.418;20.742;2023-02-24T06:03:01;81.70;;;56.90;;
75171;SDS011;63750;52.418;20.742;2023-02-24T06:05:29;87.50;;;58.40;;
75171;SDS011;63750;52.418;20.742;2023-02-24T06:07:57;85.30;;;58.70;;
75171;SDS011;63750;52.418;20.742;2023-02-24T06:10:34;83.50;;;59.00;;
75171;SDS011;63750;52.418;20.742;2023-02-24T06:13:18;78.10;;;57.60;;
75171;SDS011;63750;52.418;20.742;2023-02-24T06:15:45;77.40;;;55.00;;
75171;SDS011;63750;52.418;20.742;2023-02-24T06:18:12;75.80;;;54.20;;
75171;SDS011;63750;52.418;20.742;2023-02-24T06:20:40;72.50;;;53.60;;
75171;SDS011;63750;52.418;20.742;2023-02-24T06:23:08;72.70;;;53.90;;
75171;SDS011;63750;52.418;20.742;2023-02-24T06:25:35;72.70;;;52.20;;
75171;SDS011;63750;52.418;20.742;2023-02-24T06:28:02;74.50;;;52.50;;
75171;SDS011;63750;52.418;20.742;2023-02-24T06:30:30;73.60;;;53.30;;
75171;SDS011;63750;52.418;20.742;2023-02-24T06:32:57;79.10;;;54.70;;
75171;SDS011;63750;52.418;20.742;2023-02-24T06:35:25;77.10;;;54.20;;
75171;SDS011;63750;52.418;20.742;2023-02-24T06:37:53;72.60;;;53.20;;
75171;SDS011;63750;52.418;20.742;2023-02-24T06:40:21;78.70;;;53.90;;
75171;SDS011;63750;52.418;20.742;2023-02-24T06:42:49;71.10;;;52.10;;
75171;SDS011;63750;52.418;20.742;2023-02-24T06:45:17;72.90;;;53.50;;
75171;SDS011;63750;52.418;20.742;2023-02-24T06:47:45;68.80;;;51.20;;
75171;SDS011;63750;52.418;20.742;2023-02-24T06:50:13;74.00;;;51.10;;
75171;SDS011;63750;52.418;20.742;2023-02-24T06:52:41;78.50;;;53.60;;
75171;SDS011;63750;52.418;20.742;2023-02-24T06:55:09;70.60;;;51.90;;
75171;SDS011;63750;52.418;20.742;2023-02-24T06:57:37;72.50;;;50.50;;
75171;SDS011;63750;52.418;20.742;2023-02-24T07:00:05;75.00;;;51.10;;
75171;SDS011;63750;52.418;20.742;2023-02-24T07:02:35;75.30;;;53.10;;
75171;SDS011;63750;52.418;20.742;2023-02-24T07:05:03;69.50;;;51.90;;
75171;SDS011;63750;52.418;20.742;2023-02-24T07:07:31;73.80;;;52.00;;
75171;SDS011;63750;52.418;20.742;2023-02-24T07:09:59;67.90;;;50.00;;
75171;SDS011;63750;52.418;20.742;2023-02-24T07:12:26;64.20;;;47.70;;
75171;SDS011;63750;52.418;20.742;2023-02-24T07:14:56;66.30;;;49.70;;
75171;SDS011;63750;52.418;20.742;2023-02-24T07:17:23;71.20;;;50.00;;
75171;SDS011;63750;52.418;20.742;2023-02-24T07:19:51;67.10;;;49.50;;
75171;SDS011;63750;52.418;20.742;2023-02-24T07:22:18;68.00;;;47.20;;
75171;SDS011;63750;52.418;20.742;2023-02-24T07:24:45;64.80;;;46.30;;
75171;SDS011;63750;52.418;20.742;2023-02-24T07:27:13;64.60;;;48.30;;
75171;SDS011;63750;52.418;20.742;2023-02-24T07:29:41;64.50;;;47.10;;
75171;SDS011;63750;52.418;20.742;2023-02-24T07:32:09;63.30;;;46.80;;
75171;SDS011;63750;52.418;20.742;2023-02-24T07:34:37;63.90;;;45.10;;
75171;SDS011;63750;52.418;20.742;2023-02-24T07:37:04;63.40;;;44.90;;
75171;SDS011;63750;52.418;20.742;2023-02-24T07:39:32;61.60;;;46.20;;
75171;SDS011;63750;52.418;20.742;2023-02-24T07:42:01;62.70;;;46.20;;
75171;SDS011;63750;52.418;20.742;2023-02-24T07:44:29;64.30;;;47.40;;
75171;SDS011;63750;52.418;20.742;2023-02-24T07:46:56;63.00;;;44.40;;
75171;SDS011;63750;52.418;20.742;2023-02-24T07:49:24;59.30;;;44.40;;
75171;SDS011;63750;52.418;20.742;2023-02-24T07:51:52;61.70;;;43.90;;
75171;SDS011;63750;52.418;20.742;2023-02-24T07:54:20;60.10;;;43.60;;
75171;SDS011;63750;52.418;20.742;2023-02-24T07:56:49;58.20;;;42.70;;
75171;SDS011;63750;52.418;20.742;2023-02-24T07:59:17;61.40;;;43.60;;
75171;SDS011;63750;52.418;20.742;2023-02-24T08:01:44;61.40;;;45.30;;
75171;SDS011;63750;52.418;20.742;2023-02-24T08:04:12;60.00;;;42.40;;
75171;SDS011;63750;52.418;20.742;2023-02-24T08:06:39;58.70;;;42.10;;
75171;SDS011;63750;52.418;20.742;2023-02-24T08:09:08;63.70;;;42.60;;
75171;SDS011;63750;52.418;20.742;2023-02-24T08:11:37;58.30;;;43.10;;
75171;SDS011;63750;52.418;20.742;2023-02-24T08:14:04;57.40;;;43.40;;
75171;SDS011;63750;52.418;20.742;2023-02-24T08:16:32;56.30;;;41.00;;
75171;SDS011;63750;52.418;20.742;2023-02-24T08:18:59;56.80;;;41.70;;
75171;SDS011;63750;52.418;20.742;2023-02-24T08:21:27;53.70;;;41.20;;
75171;SDS011;63750;52.418;20.742;2023-02-24T08:23:54;57.30;;;41.30;;
75171;SDS011;63750;52.418;20.742;2023-02-24T08:26:21;54.70;;;39.20;;
75171;SDS011;63750;52.418;20.742;2023-02-24T08:28:49;57.90;;;40.70;;
75171;SDS011;63750;52.418;20.742;2023-02-24T08:31:16;63.20;;;40.60;;
75171;SDS011;63750;52.418;20.742;2023-02-24T08:33:43;53.80;;;37.10;;
75171;SDS011;63750;52.418;20.742;2023-02-24T08:36:11;57.90;;;40.10;;
75171;SDS011;63750;52.418;20.742;2023-02-24T08:38:40;58.40;;;40.50;;
75171;SDS011;63750;52.418;20.742;2023-02-24T08:41:12;59.00;;;41.00;;
75171;SDS011;63750;52.418;20.742;2023-02-24T08:43:41;60.50;;;40.70;;
75171;SDS011;63750;52.418;20.742;2023-02-24T08:46:13;64.40;;;40.90;;
75171;SDS011;63750;52.418;20.742;2023-02-24T08:48:44;60.20;;;41.20;;
75171;SDS011;63750;52.418;20.742;2023-02-24T08:51:13;60.40;;;38.90;;
75171;SDS011;63750;52.418;20.742;2023-02-24T08:53:42;58.80;;;39.50;;
75171;SDS011;63750;52.418;20.742;2023-02-24T08:56:11;56.20;;;38.80;;
75171;SDS011;63750;52.418;20.742;2023-02-24T08:58:41;50.70;;;37.20;;
75171;SDS011;63750;52.418;20.742;2023-02-24T09:01:11;52.30;;;35.40;;
75171;SDS011;63750;52.418;20.742;2023-02-24T09:03:43;49.60;;;33.70;;
75171;SDS011;63750;52.418;20.742;2023-02-24T09:06:12;48.80;;;32.50;;
75171;SDS011;63750;52.418;20.742;2023-02-24T09:08:41;52.10;;;33.70;;
75171;SDS011;63750;52.418;20.742;2023-02-24T09:11:12;53.20;;;34.90;;
75171;SDS011;63750;52.418;20.742;2023-02-24T09:13:41;52.00;;;34.80;;
75171;SDS011;63750;52.418;20.742;2023-02-24T09:16:12;48.20;;;34.40;;
75171;SDS011;63750;52.418;20.742;2023-02-24T09:18:39;49.70;;;34.80;;
75171;SDS011;63750;52.418;20.742;2023-02-24T09:21:07;51.10;;;35.50;;
75171;SDS011;63750;52.418;20.742;2023-02-24T09:23:36;49.70;;;34.60;;
75171;SDS011;63750;52.418;20.742;2023-02-24T09:26:03;47.60;;;31.70;;
75171;SDS011;63750;52.418;20.742;2023-02-24T09:28:32;43.70;;;31.70;;
75171;SDS011;63750;52.418;20.742;2023-02-24T09:31:00;45.40;;;31.40;;
75171;SDS011;63750;52.418;20.742;2023-02-24T09:33:28;44.70;;;30.90;;
75171;SDS011;63750;52.418;20.742;2023-02-24T09:35:58;41.50;;;29.70;;
75171;SDS011;63750;52.418;20.742;2023-02-24T09:38:26;43.10;;;29.20;;
75171;SDS011;63750;52.418;20.742;2023-02-24T09:40:54;42.40;;;30.80;;
75171;SDS011;63750;52.418;20.742;2023-02-24T09:43:22;42.80;;;28.50;;
75171;SDS011;63750;52.418;20.742;2023-02-24T09:45:53;40.30;;;27.90;;
75171;SDS011;63750;52.418;20.742;2023-02-24T09:48:30;44.50;;;28.80;;
75171;SDS011;63750;52.418;20.742;2023-02-24T09:51:04;42.70;;;28.20;;
75171;SDS011;63750;52.418;20.742;2023-02-24T09:53:32;40.00;;;27.30;;
75171;SDS011;63750;52.418;20.742;2023-02-24T09:56:01;39.30;;;27.00;;
75171;SDS011;63750;52.418;20.742;2023-02-24T09:58:39;39.00;;;27.00;;
75171;SDS011;63750;52.418;20.742;2023-02-24T10:01:16;38.00;;;26.90;;
75171;SDS011;63750;52.418;20.742;2023-02-24T10:03:55;36.50;;;27.10;;
75171;SDS011;63750;52.418;20.742;2023-02-24T10:06:27;40.30;;;29.30;;
75171;SDS011;63750;52.418;20.742;2023-02-24T10:08:56;42.60;;;30.40;;
75171;SDS011;63750;52.418;20.742;2023-02-24T10:11:27;42.00;;;30.80;;
75171;SDS011;63750;52.418;20.742;2023-02-24T10:13:55;40.90;;;32.60;;
75171;SDS011;63750;52.418;20.742;2023-02-24T10:16:25;42.00;;;31.80;;
75171;SDS011;63750;52.418;20.742;2023-02-24T10:18:54;37.10;;;30.10;;
75171;SDS011;63750;52.418;20.742;2023-02-24T10:21:29;39.90;;;31.30;;
75171;SDS011;63750;52.418;20.742;2023-02-24T10:24:05;41.60;;;31.80;;
75171;SDS011;63750;52.418;20.742;2023-02-24T10:26:40;38.90;;;30.90;;
75171;SDS011;63750;52.418;20.742;2023-02-24T10:29:16;41.70;;;31.90;;
75171;SDS011;63750;52.418;20.742;2023-02-24T10:31:53;38.60;;;29.40;;
75171;SDS011;63750;52.418;20.742;2023-02-24T10:34:34;40.80;;;29.10;;
75171;SDS011;63750;52.418;20.742;2023-02-24T10:37:02;40.60;;;29.90;;
75171;SDS011;63750;52.418;20.742;2023-02-24T10:39:38;40.00;;;28.90;;
75171;SDS011;63750;52.418;20.742;2023-02-24T10:42:06;30.80;;;27.00;;
75171;SDS011;63750;52.418;20.742;2023-02-24T10:44:33;36.20;;;28.30;;
75171;SDS011;63750;52.418;20.742;2023-02-24T10:47:01;33.30;;;25.90;;
75171;SDS011;63750;52.418;20.742;2023-02-24T10:49:37;31.70;;;25.10;;
75171;SDS011;63750;52.418;20.742;2023-02-24T10:52:05;35.10;;;24.60;;
75171;SDS011;63750;52.418;20.742;2023-02-24T10:54:36;28.50;;;22.10;;
75171;SDS011;63750;52.418;20.742;2023-02-24T10:57:04;27.20;;;21.00;;
75171;SDS011;63750;52.418;20.742;2023-02-24T10:59:44;25.10;;;19.20;;
75171;SDS011;63750;52.418;20.742;2023-02-24T11:02:15;25.10;;;18.70;;
75171;SDS011;63750;52.418;20.742;2023-02-24T11:04:44;28.50;;;19.30;;
75171;SDS011;63750;52.418;20.742;2023-02-24T11:07:13;28.70;;;18.50;;
75171;SDS011;63750;52.418;20.742;2023-02-24T11:09:41;30.80;;;18.90;;
75171;SDS011;63750;52.418;20.742;2023-02-24T11:12:11;32.80;;;20.30;;
75171;SDS011;63750;52.418;20.742;2023-02-24T11:14:47;32.20;;;20.20;;
75171;SDS011;63750;52.418;20.742;2023-02-24T11:17:18;31.70;;;19.50;;
75171;SDS011;63750;52.418;20.742;2023-02-24T11:19:47;30.80;;;19.80;;
75171;SDS011;63750;52.418;20.742;2023-02-24T11:22:24;34.30;;;20.60;;
75171;SDS011;63750;52.418;20.742;2023-02-24T11:24:56;30.50;;;21.00;;
75171;SDS011;63750;52.418;20.742;2023-02-24T11:27:29;26.60;;;19.30;;
75171;SDS011;63750;52.418;20.742;2023-02-24T11:30:01;28.40;;;19.80;;
75171;SDS011;63750;52.418;20.742;2023-02-24T11:32:42;29.40;;;19.80;;
75171;SDS011;63750;52.418;20.742;2023-02-24T11:35:28;28.70;;;18.70;;
75171;SDS011;63750;52.418;20.742;2023-02-24T11:38:03;29.40;;;20.20;;
75171;SDS011;63750;52.418;20.742;2023-02-24T11:40:37;26.30;;;18.30;;
75171;SDS011;63750;52.418;20.742;2023-02-24T11:43:09;26.40;;;18.80;;
75171;SDS011;63750;52.418;20.742;2023-02-24T11:45:41;25.10;;;18.50;;
75171;SDS011;63750;52.418;20.742;2023-02-24T11:48:12;25.50;;;17.60;;
75171;SDS011;63750;52.418;20.742;2023-02-24T11:50:44;26.90;;;18.80;;
75171;SDS011;63750;52.418;20.742;2023-02-24T11:53:21;24.90;;;18.40;;
75171;SDS011;63750;52.418;20.742;2023-02-24T11:55:53;23.50;;;17.40;;
75171;SDS011;63750;52.418;20.742;2023-02-24T11:58:27;24.10;;;16.90;;
75171;SDS011;63750;52.418;20.742;2023-02-24T12:01:05;23.20;;;17.60;;
75171;SDS011;63750;52.418;20.742;2023-02-24T12:03:38;25.50;;;18.50;;
75171;SDS011;63750;52.418;20.742;2023-02-24T12:06:17;24.10;;;18.70;;
75171;SDS011;63750;52.418;20.742;2023-02-24T12:08:49;25.20;;;18.20;;
75171;SDS011;63750;52.418;20.742;2023-02-24T12:11:21;25.90;;;19.30;;
75171;SDS011;63750;52.418;20.742;2023-02-24T12:14:03;29.90;;;19.80;;
75171;SDS011;63750;52.418;20.742;2023-02-24T12:16:44;23.10;;;18.40;;
75171;SDS011;63750;52.418;20.742;2023-02-24T12:19:17;27.00;;;19.60;;
75171;SDS011;63750;52.418;20.742;2023-02-24T12:21:54;26.60;;;18.90;;
75171;SDS011;63750;52.418;20.742;2023-02-24T12:24:28;27.00;;;19.80;;
75171;SDS011;63750;52.418;20.742;2023-02-24T12:26:58;25.90;;;18.00;;
75171;SDS011;63750;52.418;20.742;2023-02-24T12:29:48;22.50;;;18.00;;
75171;SDS011;63750;52.418;20.742;2023-02-24T12:32:26;24.40;;;19.00;;
75171;SDS011;63750;52.418;20.742;2023-02-24T12:35:04;25.10;;;18.30;;
75171;SDS011;63750;52.418;20.742;2023-02-24T12:37:44;25.80;;;19.20;;
75171;SDS011;63750;52.418;20.742;2023-02-24T12:40:23;23.60;;;18.30;;
75171;SDS011;63750;52.418;20.742;2023-02-24T12:43:03;25.40;;;18.90;;
75171;SDS011;63750;52.418;20.742;2023-02-24T12:45:44;24.50;;;20.10;;
75171;SDS011;63750;52.418;20.742;2023-02-24T12:48:23;24.40;;;18.70;;
75171;SDS011;63750;52.418;20.742;2023-02-24T12:51:04;23.90;;;18.70;;
75171;SDS011;63750;52.418;20.742;2023-02-24T12:53:40;24.90;;;18.50;;
75171;SDS011;63750;52.418;20.742;2023-02-24T12:56:16;22.40;;;18.50;;
75171;SDS011;63750;52.418;20.742;2023-02-24T12:58:48;22.90;;;19.10;;
75171;SDS011;63750;52.418;20.742;2023-02-24T13:01:20;23.00;;;17.80;;
75171;SDS011;63750;52.418;20.742;2023-02-24T13:04:06;22.50;;;18.00;;
75171;SDS011;63750;52.418;20.742;2023-02-24T13:06:50;22.40;;;18.10;;
75171;SDS011;63750;52.418;20.742;2023-02-24T13:09:30;24.50;;;17.90;;
75171;SDS011;63750;52.418;20.742;2023-02-24T13:12:08;20.80;;;16.60;;
75171;SDS011;63750;52.418;20.742;2023-02-24T13:14:41;21.30;;;16.50;;
75171;SDS011;63750;52.418;20.742;2023-02-24T13:17:17;21.30;;;16.90;;
75171;SDS011;63750;52.418;20.742;2023-02-24T13:19:46;21.70;;;16.60;;
75171;SDS011;63750;52.418;20.742;2023-02-24T13:22:19;19.30;;;16.30;;
75171;SDS011;63750;52.418;20.742;2023-02-24T13:24:57;22.20;;;16.40;;
75171;SDS011;63750;52.418;20.742;2023-02-24T13:27:34;20.80;;;15.50;;
75171;SDS011;63750;52.418;20.742;2023-02-24T13:30:05;19.90;;;15.90;;
75171;SDS011;63750;52.418;20.742;2023-02-24T13:32:58;19.90;;;16.10;;
75171;SDS011;63750;52.418;20.742;2023-02-24T13:35:29;19.60;;;16.00;;
75171;SDS011;63750;52.418;20.742;2023-02-24T13:38:07;18.30;;;15.50;;
75171;SDS011;63750;52.418;20.742;2023-02-24T13:40:46;19.20;;;15.80;;
75171;SDS011;63750;52.418;20.742;2023-02-24T13:43:21;19.40;;;15.80;;
75171;SDS011;63750;52.418;20.742;2023-02-24T13:45:58;17.30;;;15.20;;
75171;SDS011;63750;52.418;20.742;2023-02-24T13:48:36;20.50;;;16.40;;
75171;SDS011;63750;52.418;20.742;2023-02-24T13:54:15;19.80;;;15.80;;
75171;SDS011;63750;52.418;20.742;2023-02-24T13:56:55;22.00;;;16.80;;
75171;SDS011;63750;52.418;20.742;2023-02-24T13:59:44;20.70;;;16.30;;
75171;SDS011;63750;52.418;20.742;2023-02-24T14:02:24;20.90;;;17.10;;
75171;SDS011;63750;52.418;20.742;2023-02-24T14:04:55;21.60;;;16.40;;
75171;SDS011;63750;52.418;20.742;2023-02-24T14:07:26;20.90;;;16.10;;
75171;SDS011;63750;52.418;20.742;2023-02-24T14:09:56;16.40;;;14.00;;
75171;SDS011;63750;52.418;20.742;2023-02-24T14:12:27;17.30;;;15.10;;
75171;SDS011;63750;52.418;20.742;2023-02-24T14:14:57;17.70;;;15.80;;
75171;SDS011;63750;52.418;20.742;2023-02-24T14:17:26;18.50;;;14.80;;
75171;SDS011;63750;52.418;20.742;2023-02-24T14:19:55;15.00;;;13.40;;
75171;SDS011;63750;52.418;20.742;2023-02-24T14:22:41;16.30;;;13.90;;
75171;SDS011;63750;52.418;20.742;2023-02-24T14:25:10;16.80;;;13.60;;
75171;SDS011;63750;52.418;20.742;2023-02-24T14:27:38;17.10;;;14.10;;
75171;SDS011;63750;52.418;20.742;2023-02-24T14:30:19;19.30;;;14.80;;
75171;SDS011;63750;52.418;20.742;2023-02-24T14:32:49;16.60;;;14.30;;
75171;SDS011;63750;52.418;20.742;2023-02-24T14:35:22;16.80;;;13.90;;
75171;SDS011;63750;52.418;20.742;2023-02-24T14:37:52;19.70;;;15.00;;
75171;SDS011;63750;52.418;20.742;2023-02-24T14:40:20;19.40;;;15.30;;